Time,TemperatureF,DewpointF,PressureIn,WindDirection,WindDirectionDegrees,WindSpeedMPH,WindSpeedGustMPH,Humidity,HourlyPrecipIn,Conditions,Clouds,dailyrainin,SoftwareType,DateUTC
2013-06-07 00:00:00,74.7,71.8,29.77,WNW,292,0.0,0.0,91,0.01,,,0.00,VWS V14.01,2013-06-07 04:00:00,
2013-06-07 00:01:00,74.8,71.9,29.77,WNW,292,0.0,0.0,91,0.01,,,0.00,VWS V14.01,2013-06-07 04:01:00,
2013-06-07 00:02:00,74.8,71.9,29.77,WNW,292,0.0,0.0,91,0.01,,,0.00,VWS V14.01,2013-06-07 04:02:00,
2013-06-07 00:05:00,74.8,71.9,29.77,WNW,292,0.0,0.0,91,0.01,,,0.00,VWS V14.01,2013-06-07 04:05:00,
2013-06-07 00:07:00,74.7,71.8,29.77,WNW,292,0.0,0.0,91,0.01,,,0.00,VWS V14.01,2013-06-07 04:07:00,
2013-06-07 00:10:00,74.8,71.9,29.77,WNW,292,0.0,0.0,91,0.01,,,0.00,VWS V14.01,2013-06-07 04:10:00,
2013-06-07 00:12:00,74.7,71.7,29.77,SSE,155,0.0,0.0,90,0.01,,,0.00,VWS V14.01,2013-06-07 04:12:00,
2013-06-07 00:15:00,74.8,71.8,29.77,SSE,155,0.0,0.0,90,0.01,,,0.00,VWS V14.01,2013-06-07 04:15:00,
2013-06-07 00:17:00,74.8,71.8,29.77,SSE,155,0.0,0.0,90,0.00,,,0.00,VWS V14.01,2013-06-07 04:17:00,
2013-06-07 00:20:00,74.7,71.7,29.77,SSE,155,0.0,0.0,90,0.00,,,0.00,VWS V14.01,2013-06-07 04:20:00,
2013-06-07 00:22:00,74.8,71.8,29.77,SSE,148,0.0,4.3,90,0.00,,,0.00,VWS V14.01,2013-06-07 04:22:00,
2013-06-07 00:25:00,74.8,71.8,29.77,SSE,148,0.0,0.0,90,0.00,,,0.00,VWS V14.01,2013-06-07 04:25:00,
2013-06-07 00:27:00,74.7,71.7,29.77,SSE,148,0.0,1.4,90,0.00,,,0.00,VWS V14.01,2013-06-07 04:27:00,
2013-06-07 00:30:00,74.9,71.9,29.77,SSE,148,0.0,0.0,90,0.00,,,0.00,VWS V14.01,2013-06-07 04:30:00,
2013-06-07 00:32:00,74.8,71.8,29.77,SSE,148,0.0,0.0,90,0.00,,,0.00,VWS V14.01,2013-06-07 04:32:00,
2013-06-07 00:35:00,74.6,71.6,29.77,West,262,0.0,2.2,90,0.00,,,0.00,VWS V14.01,2013-06-07 04:35:00,
2013-06-07 00:37:00,74.7,71.7,29.77,West,262,0.0,0.0,90,0.01,,,0.01,VWS V14.01,2013-06-07 04:37:00,
2013-06-07 00:40:00,74.8,71.8,29.77,West,262,0.0,0.0,90,0.01,,,0.01,VWS V14.01,2013-06-07 04:40:00,
2013-06-07 00:42:00,74.7,71.7,29.77,West,262,0.0,0.0,90,0.01,,,0.01,VWS V14.01,2013-06-07 04:42:00,
2013-06-07 00:45:00,74.7,71.7,29.77,West,262,0.0,0.0,90,0.01,,,0.01,VWS V14.01,2013-06-07 04:45:00,
2013-06-07 00:47:00,74.6,71.6,29.77,West,266,0.0,5.7,90,0.01,,,0.01,VWS V14.01,2013-06-07 04:47:00,
2013-06-07 00:50:00,74.5,71.5,29.77,West,266,0.0,0.0,90,0.01,,,0.01,VWS V14.01,2013-06-07 04:50:00,
2013-06-07 00:52:00,74.6,71.6,29.77,West,266,0.0,0.0,90,0.01,,,0.01,VWS V14.01,2013-06-07 04:52:00,
2013-06-07 00:55:00,74.4,71.4,29.77,South,188,0.0,3.4,90,0.01,,,0.01,VWS V14.01,2013-06-07 04:55:00,
2013-06-07 00:57:00,74.6,71.6,29.77,SW,224,0.0,0.0,90,0.01,,,0.01,VWS V14.01,2013-06-07 04:57:00,
2013-06-07 01:00:00,74.5,71.5,29.77,SW,224,0.0,0.0,90,0.01,,,0.01,VWS V14.01,2013-06-07 05:00:00,
2013-06-07 01:02:00,74.5,71.5,29.77,SW,224,0.0,0.0,90,0.01,,,0.01,VWS V14.01,2013-06-07 05:02:00,
2013-06-07 01:05:00,74.5,71.5,29.77,SW,224,0.0,0.0,90,0.01,,,0.01,VWS V14.01,2013-06-07 05:05:00,
2013-06-07 01:07:00,74.5,71.5,29.77,South,181,0.0,4.7,90,0.01,,,0.01,VWS V14.01,2013-06-07 05:07:00,
2013-06-07 01:10:00,74.6,71.6,29.77,South,181,0.0,0.0,90,0.01,,,0.01,VWS V14.01,2013-06-07 05:10:00,
2013-06-07 01:12:00,74.4,71.4,29.76,SE,135,0.0,2.7,90,0.01,,,0.01,VWS V14.01,2013-06-07 05:12:00,
2013-06-07 01:18:00,74.5,71.4,29.77,SSW,197,0.0,0.0,90,0.00,,,0.01,VWS V14.01,2013-06-07 05:18:00,
2013-06-07 01:20:00,74.4,71.3,29.77,SSW,197,0.0,0.0,90,0.01,,,0.01,VWS V14.01,2013-06-07 05:20:00,
2013-06-07 01:23:00,74.6,71.5,29.77,SSW,197,0.0,3.5,90,0.01,,,0.01,VWS V14.01,2013-06-07 05:23:00,
2013-06-07 01:25:00,74.7,71.6,29.77,SSW,197,0.0,3.5,90,0.01,,,0.01,VWS V14.01,2013-06-07 05:25:00,
2013-06-07 01:28:00,74.5,71.4,29.77,SSW,197,0.0,2.4,90,0.01,,,0.01,VWS V14.01,2013-06-07 05:28:00,
2013-06-07 01:30:00,74.5,71.4,29.77,SSW,197,0.0,0.0,90,0.01,,,0.01,VWS V14.01,2013-06-07 05:30:00,
2013-06-07 01:33:00,74.5,71.4,29.78,SE,131,0.0,0.0,90,0.01,,,0.01,VWS V14.01,2013-06-07 05:33:00,
2013-06-07 01:35:00,74.6,71.5,29.77,SE,131,0.0,0.0,90,0.01,,,0.01,VWS V14.01,2013-06-07 05:35:00,
2013-06-07 01:45:00,74.6,71.5,29.78,South,176,0.0,0.0,90,0.00,,,0.02,VWS V14.01,2013-06-07 05:45:00,
2013-06-07 01:50:00,74.6,71.5,29.78,SSE,167,0.0,0.0,90,0.01,,,0.02,VWS V14.01,2013-06-07 05:50:00,
2013-06-07 01:55:00,74.5,71.4,29.77,SSE,167,0.0,0.0,90,0.01,,,0.02,VWS V14.01,2013-06-07 05:55:00,
2013-06-07 02:00:00,74.5,71.4,29.77,WSW,238,0.0,9.5,90,0.01,,,0.02,VWS V14.01,2013-06-07 06:00:00,
2013-06-07 02:05:00,74.4,71.3,29.77,WSW,238,0.0,0.0,90,0.01,,,0.02,VWS V14.01,2013-06-07 06:05:00,
2013-06-07 02:10:00,74.4,71.3,29.77,SSE,162,0.0,2.9,90,0.01,,,0.02,VWS V14.01,2013-06-07 06:10:00,
2013-06-07 02:15:00,74.4,71.3,29.77,SSE,162,0.0,0.0,90,0.01,,,0.02,VWS V14.01,2013-06-07 06:15:00,
2013-06-07 02:20:00,74.4,71.3,29.77,SE,139,0.0,0.0,90,0.00,,,0.02,VWS V14.01,2013-06-07 06:20:00,
2013-06-07 02:25:00,74.3,71.3,29.77,SE,139,0.0,0.0,90,0.01,,,0.02,VWS V14.01,2013-06-07 06:25:00,
2013-06-07 02:30:00,74.3,71.3,29.77,SE,139,0.0,0.0,90,0.01,,,0.02,VWS V14.01,2013-06-07 06:30:00,
2013-06-07 02:35:00,74.2,71.2,29.77,SSE,167,0.0,0.0,90,0.01,,,0.02,VWS V14.01,2013-06-07 06:35:00,
2013-06-07 02:40:00,74.3,71.3,29.78,West,264,0.0,0.0,90,0.00,,,0.02,VWS V14.01,2013-06-07 06:40:00,
2013-06-07 02:45:00,74.2,71.3,29.77,West,264,0.0,0.0,91,0.00,,,0.02,VWS V14.01,2013-06-07 06:45:00,
2013-06-07 02:50:00,74.1,71.2,29.77,West,273,0.0,0.0,91,0.00,,,0.02,VWS V14.01,2013-06-07 06:50:00,
2013-06-07 02:55:00,74.2,71.3,29.77,West,273,0.0,0.0,91,0.00,,,0.02,VWS V14.01,2013-06-07 06:55:00,
2013-06-07 03:00:00,74.1,71.2,29.77,West,273,0.0,0.0,91,0.01,,,0.03,VWS V14.01,2013-06-07 07:00:00,
2013-06-07 03:05:00,74.1,71.2,29.78,West,273,0.0,0.0,91,0.01,,,0.03,VWS V14.01,2013-06-07 07:05:00,
2013-06-07 03:10:00,74.0,71.2,29.77,West,273,0.0,0.0,91,0.01,,,0.03,VWS V14.01,2013-06-07 07:10:00,
2013-06-07 03:15:00,74.1,71.2,29.77,West,273,0.0,0.0,91,0.01,,,0.03,VWS V14.01,2013-06-07 07:15:00,
2013-06-07 03:20:00,74.1,71.2,29.77,West,273,0.0,0.0,91,0.01,,,0.03,VWS V14.01,2013-06-07 07:20:00,
2013-06-07 03:25:00,74.2,71.4,29.78,West,273,0.0,0.0,91,0.01,,,0.03,VWS V14.01,2013-06-07 07:25:00,
2013-06-07 03:30:00,74.1,71.3,29.78,West,273,0.0,0.0,91,0.01,,,0.03,VWS V14.01,2013-06-07 07:30:00,
2013-06-07 03:35:00,74.1,71.3,29.78,West,273,0.0,0.0,91,0.01,,,0.03,VWS V14.01,2013-06-07 07:35:00,
2013-06-07 03:40:00,74.1,71.3,29.78,WNW,284,0.0,0.0,91,0.01,,,0.03,VWS V14.01,2013-06-07 07:40:00,
2013-06-07 03:45:00,74.1,71.2,29.78,WNW,284,0.0,0.0,91,0.01,,,0.03,VWS V14.01,2013-06-07 07:45:00,
2013-06-07 03:50:00,74.0,71.1,29.78,WNW,284,0.0,0.0,91,0.01,,,0.03,VWS V14.01,2013-06-07 07:50:00,
2013-06-07 03:55:00,74.2,71.3,29.78,NNE,14,0.0,0.0,91,0.01,,,0.03,VWS V14.01,2013-06-07 07:55:00,
2013-06-07 04:00:00,74.1,71.2,29.78,WSW,238,0.0,0.0,91,0.02,,,0.04,VWS V14.01,2013-06-07 08:00:00,
2013-06-07 04:05:00,74.1,71.2,29.78,WSW,238,0.0,0.0,91,0.01,,,0.04,VWS V14.01,2013-06-07 08:05:00,
2013-06-07 04:10:00,74.0,71.1,29.78,WSW,238,0.0,0.0,91,0.01,,,0.04,VWS V14.01,2013-06-07 08:10:00,
2013-06-07 04:15:00,74.0,71.1,29.79,WSW,238,0.0,0.0,91,0.01,,,0.04,VWS V14.01,2013-06-07 08:15:00,
2013-06-07 04:20:00,73.9,71.0,29.78,WSW,238,0.0,0.0,91,0.01,,,0.04,VWS V14.01,2013-06-07 08:20:00,
2013-06-07 04:25:00,73.9,71.0,29.79,WSW,238,0.0,3.1,91,0.01,,,0.04,VWS V14.01,2013-06-07 08:25:00,
2013-06-07 04:30:00,73.8,70.9,29.79,WSW,238,0.0,0.0,91,0.01,,,0.04,VWS V14.01,2013-06-07 08:30:00,
2013-06-07 04:35:00,73.8,70.9,29.79,WSW,238,0.0,0.0,91,0.01,,,0.04,VWS V14.01,2013-06-07 08:35:00,
2013-06-07 04:40:00,73.9,71.1,29.79,WSW,238,0.0,0.0,91,0.01,,,0.04,VWS V14.01,2013-06-07 08:40:00,
2013-06-07 04:45:00,73.7,70.9,29.79,WSW,238,0.0,0.0,91,0.01,,,0.04,VWS V14.01,2013-06-07 08:45:00,
2013-06-07 04:50:00,73.7,70.9,29.79,WSW,238,0.0,0.0,91,0.01,,,0.04,VWS V14.01,2013-06-07 08:50:00,
2013-06-07 04:55:00,73.7,70.9,29.79,WSW,238,0.0,0.0,91,0.01,,,0.04,VWS V14.01,2013-06-07 08:55:00,
2013-06-07 05:00:00,73.7,70.9,29.79,WSW,238,0.0,0.0,91,0.01,,,0.04,VWS V14.01,2013-06-07 09:00:00,
2013-06-07 05:05:00,73.8,71.0,29.80,WSW,238,0.0,0.0,91,0.00,,,0.04,VWS V14.01,2013-06-07 09:05:00,
2013-06-07 05:10:00,73.8,71.0,29.80,WSW,238,0.0,0.0,91,0.00,,,0.04,VWS V14.01,2013-06-07 09:10:00,
2013-06-07 05:15:00,73.9,71.1,29.80,WSW,238,0.0,0.0,91,0.00,,,0.04,VWS V14.01,2013-06-07 09:15:00,
2013-06-07 05:20:00,73.9,71.1,29.81,WSW,238,0.0,0.0,91,0.00,,,0.04,VWS V14.01,2013-06-07 09:20:00,
2013-06-07 05:25:00,73.9,71.1,29.81,WSW,238,0.0,0.0,91,0.00,,,0.04,VWS V14.01,2013-06-07 09:25:00,
2013-06-07 05:30:00,73.9,71.1,29.81,WSW,238,0.0,0.0,91,0.00,,,0.04,VWS V14.01,2013-06-07 09:30:00,
2013-06-07 05:35:00,73.9,71.0,29.82,WSW,238,0.0,0.0,91,0.00,,,0.04,VWS V14.01,2013-06-07 09:35:00,
2013-06-07 05:40:00,73.9,71.0,29.82,WSW,238,0.0,0.0,91,0.01,,,0.05,VWS V14.01,2013-06-07 09:40:00,
2013-06-07 05:45:00,74.0,71.1,29.83,WSW,238,0.0,0.0,91,0.01,,,0.05,VWS V14.01,2013-06-07 09:45:00,
2013-06-07 05:50:00,74.0,71.1,29.83,WSW,238,0.0,0.0,91,0.01,,,0.05,VWS V14.01,2013-06-07 09:50:00,
2013-06-07 05:55:00,74.0,71.1,29.83,WSW,238,0.0,0.0,91,0.01,,,0.05,VWS V14.01,2013-06-07 09:55:00,
2013-06-07 06:00:00,73.9,71.0,29.83,WSW,238,0.0,2.7,91,0.01,,,0.05,VWS V14.01,2013-06-07 10:00:00,
2013-06-07 06:05:00,73.9,71.0,29.83,WSW,238,0.0,0.0,91,0.01,,,0.05,VWS V14.01,2013-06-07 10:05:00,
2013-06-07 06:10:00,73.9,71.0,29.84,WSW,238,0.0,0.0,91,0.01,,,0.05,VWS V14.01,2013-06-07 10:10:00,
2013-06-07 06:15:00,73.9,71.1,29.84,WSW,238,0.0,0.0,91,0.01,,,0.05,VWS V14.01,2013-06-07 10:15:00,
2013-06-07 06:20:00,73.9,71.1,29.84,WSW,238,0.0,0.0,91,0.01,,,0.05,VWS V14.01,2013-06-07 10:20:00,
2013-06-07 06:25:00,73.8,71.0,29.84,WSW,238,0.0,0.0,91,0.01,,,0.05,VWS V14.01,2013-06-07 10:25:00,
2013-06-07 06:30:00,73.8,71.0,29.84,WSW,238,0.0,0.0,91,0.01,,,0.05,VWS V14.01,2013-06-07 10:30:00,
2013-06-07 06:35:00,73.8,71.0,29.84,WSW,238,0.0,0.0,91,0.01,,,0.05,VWS V14.01,2013-06-07 10:35:00,
2013-06-07 06:40:00,73.7,71.0,29.84,WSW,238,0.0,0.0,91,0.00,,,0.05,VWS V14.01,2013-06-07 10:40:00,
2013-06-07 06:45:00,73.7,71.0,29.85,WSW,238,0.0,0.0,91,0.00,,,0.05,VWS V14.01,2013-06-07 10:45:00,
2013-06-07 06:50:00,73.6,70.9,29.85,WSW,238,0.0,0.0,91,0.01,,,0.06,VWS V14.01,2013-06-07 10:50:00,
2013-06-07 06:55:00,73.6,70.9,29.85,WSW,238,0.0,0.0,91,0.01,,,0.06,VWS V14.01,2013-06-07 10:55:00,
2013-06-07 07:00:00,73.6,70.9,29.85,WSW,238,0.0,0.0,91,0.01,,,0.06,VWS V14.01,2013-06-07 11:00:00,
2013-06-07 07:05:00,73.6,71.0,29.86,WSW,238,0.0,0.0,92,0.01,,,0.06,VWS V14.01,2013-06-07 11:05:00,
2013-06-07 07:10:00,73.7,71.1,29.86,WSW,238,0.0,0.0,92,0.01,,,0.06,VWS V14.01,2013-06-07 11:10:00,
2013-06-07 07:15:00,73.8,71.2,29.86,WSW,238,0.0,0.0,92,0.01,,,0.06,VWS V14.01,2013-06-07 11:15:00,
2013-06-07 07:20:00,73.8,71.2,29.87,WSW,238,0.0,0.0,92,0.01,,,0.06,VWS V14.01,2013-06-07 11:20:00,
2013-06-07 07:25:00,73.9,71.3,29.87,WSW,238,0.0,0.0,92,0.01,,,0.06,VWS V14.01,2013-06-07 11:25:00,
2013-06-07 07:29:00,74.0,71.4,29.87,WSW,238,0.0,0.0,92,0.01,,,0.06,VWS V14.01,2013-06-07 11:29:00,
2013-06-07 07:30:00,73.9,71.3,29.87,WSW,238,0.0,0.0,92,0.01,,,0.06,VWS V14.01,2013-06-07 11:30:00,
2013-06-07 07:34:00,74.1,71.5,29.87,WSW,238,0.0,0.0,92,0.01,,,0.06,VWS V14.01,2013-06-07 11:34:00,
2013-06-07 07:35:00,74.0,71.4,29.87,WSW,238,0.0,0.0,92,0.01,,,0.06,VWS V14.01,2013-06-07 11:35:00,
2013-06-07 07:39:00,74.2,71.6,29.87,WSW,238,0.0,0.0,92,0.01,,,0.06,VWS V14.01,2013-06-07 11:39:00,
2013-06-07 07:40:00,74.2,71.6,29.87,WSW,238,0.0,0.0,92,0.01,,,0.06,VWS V14.01,2013-06-07 11:40:00,
2013-06-07 07:44:00,74.3,71.7,29.87,WSW,238,0.0,0.0,92,0.01,,,0.06,VWS V14.01,2013-06-07 11:44:00,
2013-06-07 07:45:00,74.2,71.6,29.87,WSW,238,0.0,0.0,92,0.01,,,0.06,VWS V14.01,2013-06-07 11:45:00,
2013-06-07 07:49:00,74.4,71.7,29.87,WSW,238,0.0,0.0,91,0.00,,,0.06,VWS V14.01,2013-06-07 11:49:00,
2013-06-07 07:50:00,74.4,71.7,29.87,WSW,238,0.0,0.0,91,0.01,,,0.06,VWS V14.01,2013-06-07 11:50:00,
2013-06-07 07:54:00,74.7,72.0,29.87,WSW,238,0.0,0.0,91,0.00,,,0.06,VWS V14.01,2013-06-07 11:54:00,
2013-06-07 07:55:00,74.6,71.9,29.87,WSW,238,0.0,0.0,91,0.00,,,0.06,VWS V14.01,2013-06-07 11:55:00,
2013-06-07 07:59:00,74.8,72.1,29.87,WSW,238,0.0,0.0,91,0.00,,,0.06,VWS V14.01,2013-06-07 11:59:00,
2013-06-07 08:00:00,74.8,72.1,29.87,WSW,238,0.0,0.0,91,0.00,,,0.06,VWS V14.01,2013-06-07 12:00:00,
2013-06-07 08:04:00,75.0,72.2,29.87,East,101,0.0,0.0,91,0.00,,,0.06,VWS V14.01,2013-06-07 12:04:00,
2013-06-07 08:05:00,75.0,72.2,29.87,East,101,0.0,0.0,91,0.00,,,0.06,VWS V14.01,2013-06-07 12:05:00,
2013-06-07 08:09:00,75.1,72.3,29.87,East,101,0.0,0.0,91,0.00,,,0.06,VWS V14.01,2013-06-07 12:09:00,
2013-06-07 08:10:00,75.1,72.3,29.87,East,101,0.0,0.0,91,0.00,,,0.06,VWS V14.01,2013-06-07 12:10:00,
2013-06-07 08:14:00,75.2,72.3,29.88,East,101,0.0,0.0,91,0.00,,,0.06,VWS V14.01,2013-06-07 12:14:00,
2013-06-07 08:15:00,75.2,72.3,29.88,East,101,0.0,0.0,91,0.00,,,0.06,VWS V14.01,2013-06-07 12:15:00,
2013-06-07 08:19:00,75.2,72.2,29.88,East,101,0.0,0.0,90,0.00,,,0.06,VWS V14.01,2013-06-07 12:19:00,
2013-06-07 08:20:00,75.3,72.3,29.88,East,101,0.0,0.0,90,0.00,,,0.06,VWS V14.01,2013-06-07 12:20:00,
2013-06-07 08:24:00,75.4,72.4,29.88,SSW,201,0.0,4.2,90,0.00,,,0.06,VWS V14.01,2013-06-07 12:24:00,
2013-06-07 08:25:00,75.3,72.3,29.88,East,101,0.0,0.0,90,0.00,,,0.06,VWS V14.01,2013-06-07 12:25:00,
2013-06-07 08:29:00,75.6,72.6,29.88,SSW,201,0.0,0.0,90,0.00,,,0.06,VWS V14.01,2013-06-07 12:29:00,
2013-06-07 08:30:00,75.4,72.4,29.88,SSW,201,0.0,0.0,90,0.00,,,0.06,VWS V14.01,2013-06-07 12:30:00,
2013-06-07 08:34:00,75.7,72.6,29.89,SSW,201,0.0,0.0,90,0.00,,,0.06,VWS V14.01,2013-06-07 12:34:00,
2013-06-07 08:35:00,75.6,72.5,29.89,SSW,201,0.0,0.0,90,0.00,,,0.06,VWS V14.01,2013-06-07 12:35:00,
2013-06-07 08:39:00,75.8,72.7,29.89,SSW,201,0.0,0.0,90,0.00,,,0.06,VWS V14.01,2013-06-07 12:39:00,
2013-06-07 08:40:00,75.8,72.7,29.89,SSW,201,0.0,0.0,90,0.00,,,0.06,VWS V14.01,2013-06-07 12:40:00,
2013-06-07 08:44:00,75.9,72.7,29.89,SSW,201,0.0,0.0,90,0.01,,,0.07,VWS V14.01,2013-06-07 12:44:00,
2013-06-07 08:45:00,76.0,72.9,29.89,SSW,201,0.0,0.0,90,0.01,,,0.07,VWS V14.01,2013-06-07 12:45:00,
2013-06-07 08:49:00,75.8,72.6,29.89,SSW,201,0.0,0.0,90,0.01,,,0.07,VWS V14.01,2013-06-07 12:49:00,
2013-06-07 08:50:00,76.0,72.8,29.89,SSW,201,0.0,0.0,90,0.01,,,0.07,VWS V14.01,2013-06-07 12:50:00,
2013-06-07 08:54:00,76.0,72.8,29.89,SSW,201,0.0,0.0,90,0.01,,,0.07,VWS V14.01,2013-06-07 12:54:00,
2013-06-07 08:55:00,75.9,72.7,29.89,SSW,201,0.0,0.0,90,0.01,,,0.07,VWS V14.01,2013-06-07 12:55:00,
2013-06-07 08:59:00,75.9,72.7,29.89,SSW,201,0.0,0.0,90,0.01,,,0.07,VWS V14.01,2013-06-07 12:59:00,
2013-06-07 09:00:00,76.0,72.8,29.90,SSW,201,0.0,0.0,90,0.01,,,0.07,VWS V14.01,2013-06-07 13:00:00,
2013-06-07 09:04:00,75.9,72.7,29.90,SSW,201,0.0,0.0,90,0.01,,,0.07,VWS V14.01,2013-06-07 13:04:00,
2013-06-07 09:05:00,75.9,72.7,29.90,SSW,201,0.0,0.0,90,0.01,,,0.07,VWS V14.01,2013-06-07 13:05:00,
2013-06-07 09:09:00,75.9,72.6,29.90,SE,146,0.0,4.2,90,0.01,,,0.07,VWS V14.01,2013-06-07 13:09:00,
2013-06-07 09:10:00,75.9,72.6,29.90,SE,146,1.9,4.2,90,0.01,,,0.07,VWS V14.01,2013-06-07 13:10:00,
2013-06-07 09:14:00,76.0,72.8,29.90,SE,146,0.0,0.0,90,0.01,,,0.07,VWS V14.01,2013-06-07 13:14:00,
2013-06-07 09:15:00,76.0,72.8,29.90,SE,146,0.0,0.0,90,0.01,,,0.07,VWS V14.01,2013-06-07 13:15:00,
2013-06-07 09:19:00,76.2,73.1,29.90,SE,146,0.0,0.0,90,0.01,,,0.07,VWS V14.01,2013-06-07 13:19:00,
2013-06-07 09:20:00,76.1,73.0,29.90,SE,146,0.0,0.0,90,0.01,,,0.07,VWS V14.01,2013-06-07 13:20:00,
2013-06-07 09:24:00,76.2,72.9,29.90,WSW,248,0.0,0.0,90,0.01,,,0.07,VWS V14.01,2013-06-07 13:24:00,
2013-06-07 09:25:00,76.1,72.8,29.90,WSW,248,0.0,0.0,90,0.01,,,0.07,VWS V14.01,2013-06-07 13:25:00,
2013-06-07 09:29:00,76.3,73.0,29.90,WSW,248,0.0,0.0,90,0.01,,,0.07,VWS V14.01,2013-06-07 13:29:00,
2013-06-07 09:30:00,76.3,73.0,29.90,WSW,248,0.0,0.0,90,0.01,,,0.07,VWS V14.01,2013-06-07 13:30:00,
2013-06-07 09:34:00,76.5,73.1,29.90,SSE,162,0.0,3.2,89,0.01,,,0.07,VWS V14.01,2013-06-07 13:34:00,
2013-06-07 09:35:00,76.4,73.0,29.90,WSW,248,0.0,0.0,89,0.01,,,0.07,VWS V14.01,2013-06-07 13:35:00,
2013-06-07 09:39:00,76.7,73.2,29.91,SSE,158,0.0,2.8,89,0.01,,,0.07,VWS V14.01,2013-06-07 13:39:00,
2013-06-07 09:40:00,76.7,73.2,29.91,SSE,156,0.0,0.0,89,0.01,,,0.07,VWS V14.01,2013-06-07 13:40:00,
2013-06-07 09:44:00,77.0,72.9,29.91,South,174,0.0,5.5,87,0.00,,,0.07,VWS V14.01,2013-06-07 13:44:00,
2013-06-07 09:45:00,77.0,73.1,29.91,SSE,158,0.0,0.0,88,0.01,,,0.07,VWS V14.01,2013-06-07 13:45:00,
2013-06-07 09:49:00,77.3,73.1,29.90,South,174,0.0,0.0,87,0.00,,,0.07,VWS V14.01,2013-06-07 13:49:00,
2013-06-07 09:50:00,77.2,73.1,29.90,South,174,0.0,0.0,87,0.00,,,0.07,VWS V14.01,2013-06-07 13:50:00,
2013-06-07 09:54:00,77.7,73.2,29.91,South,174,0.0,0.0,86,0.00,,,0.07,VWS V14.01,2013-06-07 13:54:00,
2013-06-07 09:55:00,77.5,73.0,29.91,South,174,0.0,0.0,86,0.00,,,0.07,VWS V14.01,2013-06-07 13:55:00,
2013-06-07 09:59:00,78.0,73.1,29.91,NW,315,6.9,6.9,85,0.01,,,0.08,VWS V14.01,2013-06-07 13:59:00,
2013-06-07 10:00:00,78.0,73.3,29.91,SW,215,0.0,5.2,86,0.01,,,0.08,VWS V14.01,2013-06-07 14:00:00,
2013-06-07 10:04:00,78.2,72.9,29.91,SSE,152,0.0,2.7,84,0.01,,,0.08,VWS V14.01,2013-06-07 14:04:00,
2013-06-07 10:05:00,78.2,73.1,29.91,SSW,200,0.0,1.7,84,0.01,,,0.08,VWS V14.01,2013-06-07 14:05:00,
2013-06-07 10:09:00,78.4,72.9,29.91,WNW,298,0.0,6.0,83,0.01,,,0.08,VWS V14.01,2013-06-07 14:09:00,
2013-06-07 10:10:00,78.4,72.7,29.91,WNW,298,3.0,9.5,83,0.01,,,0.08,VWS V14.01,2013-06-07 14:10:00,
2013-06-07 10:14:00,78.8,73.2,29.91,NW,304,0.0,6.0,83,0.01,,,0.08,VWS V14.01,2013-06-07 14:14:00,
2013-06-07 10:15:00,78.8,73.3,29.91,NW,321,6.0,6.0,83,0.01,,,0.08,VWS V14.01,2013-06-07 14:15:00,
2013-06-07 10:19:00,79.2,73.7,29.91,NW,314,3.0,8.6,83,0.01,,,0.08,VWS V14.01,2013-06-07 14:19:00,
2013-06-07 10:20:00,79.0,73.5,29.91,SSE,156,0.0,0.0,83,0.01,,,0.08,VWS V14.01,2013-06-07 14:20:00,
2013-06-07 10:24:00,79.4,73.1,29.91,South,181,0.0,5.2,81,0.01,,,0.08,VWS V14.01,2013-06-07 14:24:00,
2013-06-07 10:25:00,79.3,73.5,29.91,WNW,295,0.0,0.0,82,0.01,,,0.08,VWS V14.01,2013-06-07 14:25:00,
2013-06-07 10:29:00,79.3,73.0,29.91,South,170,0.0,0.0,81,0.01,,,0.08,VWS V14.01,2013-06-07 14:29:00,
2013-06-07 10:30:00,79.4,72.9,29.91,South,170,0.0,2.9,81,0.01,,,0.08,VWS V14.01,2013-06-07 14:30:00,
2013-06-07 10:34:00,79.5,73.0,29.91,South,176,0.0,0.0,81,0.01,,,0.08,VWS V14.01,2013-06-07 14:34:00,
2013-06-07 10:35:00,79.4,72.9,29.91,South,176,0.0,0.0,80,0.01,,,0.08,VWS V14.01,2013-06-07 14:35:00,
2013-06-07 10:39:00,79.8,73.2,29.92,West,274,0.0,3.2,80,0.01,,,0.08,VWS V14.01,2013-06-07 14:39:00,
2013-06-07 10:40:00,79.7,73.1,29.92,West,274,0.0,4.6,80,0.01,,,0.08,VWS V14.01,2013-06-07 14:40:00,
2013-06-07 10:44:00,80.0,73.3,29.92,West,264,0.0,3.0,80,0.01,,,0.08,VWS V14.01,2013-06-07 14:44:00,
2013-06-07 10:45:00,80.0,73.5,29.92,West,264,0.0,3.0,80,0.01,,,0.08,VWS V14.01,2013-06-07 14:45:00,
2013-06-07 10:49:00,80.1,73.2,29.91,West,264,0.0,0.0,80,0.01,,,0.08,VWS V14.01,2013-06-07 14:49:00,
2013-06-07 10:50:00,80.0,73.1,29.91,West,264,0.0,0.0,80,0.01,,,0.08,VWS V14.01,2013-06-07 14:50:00,
2013-06-07 10:54:00,80.2,73.4,29.92,SSW,208,0.0,0.0,80,0.01,,,0.08,VWS V14.01,2013-06-07 14:54:00,
2013-06-07 10:55:00,80.2,73.2,29.91,SSW,208,0.0,0.0,79,0.01,,,0.08,VWS V14.01,2013-06-07 14:55:00,
2013-06-07 10:59:00,80.5,73.5,29.92,West,281,0.0,0.0,79,0.00,,,0.08,VWS V14.01,2013-06-07 14:59:00,
2013-06-07 11:00:00,80.4,73.4,29.92,West,281,0.0,2.9,79,0.01,,,0.08,VWS V14.01,2013-06-07 15:00:00,
2013-06-07 11:04:00,80.4,73.1,29.92,West,281,0.0,0.0,78,0.00,,,0.08,VWS V14.01,2013-06-07 15:04:00,
2013-06-07 11:05:00,80.4,73.1,29.92,West,281,0.0,0.0,78,0.00,,,0.08,VWS V14.01,2013-06-07 15:05:00,
2013-06-07 11:09:00,80.7,72.9,29.92,SSE,149,2.2,3.2,77,0.00,,,0.08,VWS V14.01,2013-06-07 15:09:00,
2013-06-07 11:10:00,80.5,72.8,29.92,West,281,0.0,0.0,77,0.00,,,0.08,VWS V14.01,2013-06-07 15:10:00,
2013-06-07 11:14:00,80.8,73.0,29.92,SSE,149,0.0,0.0,77,0.00,,,0.08,VWS V14.01,2013-06-07 15:14:00,
2013-06-07 11:15:00,80.7,72.9,29.92,SSE,149,0.0,0.0,77,0.00,,,0.08,VWS V14.01,2013-06-07 15:15:00,
2013-06-07 11:19:00,81.0,73.3,29.92,SSE,149,0.0,0.0,78,0.00,,,0.08,VWS V14.01,2013-06-07 15:19:00,
2013-06-07 11:20:00,81.0,73.3,29.92,SSE,149,0.0,0.0,78,0.00,,,0.08,VWS V14.01,2013-06-07 15:20:00,
2013-06-07 11:24:00,81.4,73.9,29.92,SSW,201,0.0,3.0,78,0.00,,,0.08,VWS V14.01,2013-06-07 15:24:00,
2013-06-07 11:25:00,81.2,73.8,29.92,SSW,201,0.0,3.0,78,0.00,,,0.08,VWS V14.01,2013-06-07 15:25:00,
2013-06-07 11:29:00,81.5,73.8,29.92,SSW,201,0.0,0.0,78,0.00,,,0.08,VWS V14.01,2013-06-07 15:29:00,
2013-06-07 11:30:00,81.5,73.9,29.92,SSW,201,0.0,3.0,78,0.00,,,0.08,VWS V14.01,2013-06-07 15:30:00,
2013-06-07 11:40:00,81.7,73.9,29.92,WNW,300,0.0,0.0,77,0.00,,,0.08,VWS V14.01,2013-06-07 15:40:00,
2013-06-07 11:45:00,81.7,73.8,29.92,WNW,300,0.0,0.0,77,0.00,,,0.08,VWS V14.01,2013-06-07 15:45:00,
2013-06-07 11:50:00,81.9,73.8,29.93,WNW,300,0.0,0.0,76,0.00,,,0.08,VWS V14.01,2013-06-07 15:50:00,
2013-06-07 11:55:00,82.0,73.1,29.93,SW,235,0.0,5.7,74,0.01,,,0.09,VWS V14.01,2013-06-07 15:55:00,
2013-06-07 12:00:00,82.2,73.6,29.93,WNW,301,0.0,2.9,75,0.01,,,0.09,VWS V14.01,2013-06-07 16:00:00,
2013-06-07 12:05:00,82.4,73.1,29.93,NW,311,5.0,7.4,74,0.01,,,0.09,VWS V14.01,2013-06-07 16:05:00,
2013-06-07 12:10:00,82.2,72.8,29.93,South,184,0.0,0.0,73,0.01,,,0.09,VWS V14.01,2013-06-07 16:10:00,
2013-06-07 12:15:00,82.5,73.4,29.93,South,184,0.0,0.0,74,0.01,,,0.09,VWS V14.01,2013-06-07 16:15:00,
2013-06-07 12:20:00,82.8,72.9,29.93,South,173,0.0,0.0,72,0.01,,,0.09,VWS V14.01,2013-06-07 16:20:00,
2013-06-07 12:25:00,83.1,73.7,29.93,West,266,0.0,0.0,73,0.01,,,0.09,VWS V14.01,2013-06-07 16:25:00,
2013-06-07 12:30:00,83.4,73.2,29.92,West,271,0.0,5.2,71,0.01,,,0.09,VWS V14.01,2013-06-07 16:30:00,
2013-06-07 12:35:00,83.6,73.2,29.92,South,190,0.0,0.0,71,0.01,,,0.09,VWS V14.01,2013-06-07 16:35:00,
2013-06-07 12:40:00,83.7,73.2,29.92,SW,236,0.0,3.2,71,0.01,,,0.09,VWS V14.01,2013-06-07 16:40:00,
2013-06-07 12:45:00,84.1,73.2,29.92,South,191,0.0,4.5,70,0.01,,,0.09,VWS V14.01,2013-06-07 16:45:00,
2013-06-07 12:50:00,84.5,73.9,29.92,NW,322,0.0,0.0,71,0.01,,,0.09,VWS V14.01,2013-06-07 16:50:00,
2013-06-07 12:55:00,85.3,73.5,29.92,SE,125,0.0,3.2,68,0.01,,,0.09,VWS V14.01,2013-06-07 16:55:00,
2013-06-07 13:00:00,85.7,73.8,29.92,West,277,0.0,3.5,68,0.00,,,0.09,VWS V14.01,2013-06-07 17:00:00,
2013-06-07 13:05:00,86.2,73.7,29.92,SSE,167,0.0,0.0,66,0.00,,,0.09,VWS V14.01,2013-06-07 17:05:00,
2013-06-07 13:10:00,86.6,73.1,29.92,North,359,0.0,3.2,64,0.00,,,0.09,VWS V14.01,2013-06-07 17:10:00,
2013-06-07 13:15:00,87.1,73.7,29.92,South,177,0.0,4.2,64,0.00,,,0.09,VWS V14.01,2013-06-07 17:15:00,
2013-06-07 13:20:00,87.9,73.9,29.92,South,177,0.0,0.0,63,0.01,,,0.10,VWS V14.01,2013-06-07 17:20:00,
2013-06-07 13:25:00,88.2,73.7,29.92,South,177,0.0,0.0,62,0.01,,,0.10,VWS V14.01,2013-06-07 17:25:00,
2013-06-07 13:30:00,88.3,73.6,29.91,SSW,195,0.0,4.5,62,0.01,,,0.10,VWS V14.01,2013-06-07 17:30:00,
2013-06-07 13:35:00,88.7,73.9,29.91,SSW,195,0.0,0.0,62,0.01,,,0.10,VWS V14.01,2013-06-07 17:35:00,
2013-06-07 13:40:00,88.9,73.4,29.91,SSW,195,0.0,0.0,60,0.01,,,0.10,VWS V14.01,2013-06-07 17:40:00,
2013-06-07 13:45:00,89.0,73.2,29.91,SSW,202,0.0,0.0,60,0.01,,,0.10,VWS V14.01,2013-06-07 17:45:00,
2013-06-07 13:50:00,88.9,74.0,29.90,SSW,202,0.0,0.0,62,0.01,,,0.10,VWS V14.01,2013-06-07 17:50:00,
2013-06-07 13:55:00,89.2,74.8,29.90,SSW,202,0.0,0.0,63,0.01,,,0.10,VWS V14.01,2013-06-07 17:55:00,
2013-06-07 14:00:00,89.3,74.1,29.90,NW,304,0.0,0.0,61,0.01,,,0.10,VWS V14.01,2013-06-07 18:00:00,
2013-06-07 14:05:00,89.2,73.6,29.90,NW,304,0.0,4.4,60,0.01,,,0.10,VWS V14.01,2013-06-07 18:05:00,
2013-06-07 14:10:00,89.2,74.3,29.90,WNW,297,0.0,0.0,62,0.01,,,0.10,VWS V14.01,2013-06-07 18:10:00,
2013-06-07 14:15:00,89.4,73.9,29.90,WNW,297,0.0,0.0,60,0.01,,,0.10,VWS V14.01,2013-06-07 18:15:00,
2013-06-07 14:21:00,89.6,73.9,29.90,WNW,297,0.0,0.0,60,0.00,,,0.10,VWS V14.01,2013-06-07 18:21:00,
2013-06-07 14:26:00,89.6,73.5,29.90,South,174,0.0,2.5,59,0.00,,,0.10,VWS V14.01,2013-06-07 18:26:00,
2013-06-07 14:31:00,89.8,74.2,29.89,WNW,292,3.4,3.4,60,0.00,,,0.10,VWS V14.01,2013-06-07 18:31:00,
2013-06-07 14:37:00,89.9,73.4,29.90,ESE,121,0.0,3.4,58,0.00,,,0.10,VWS V14.01,2013-06-07 18:37:00,
2013-06-07 14:42:00,89.7,73.8,29.89,ESE,121,0.0,0.0,60,0.00,,,0.10,VWS V14.01,2013-06-07 18:42:00,
2013-06-07 14:48:00,89.8,73.8,29.89,ESE,121,0.0,0.0,59,0.00,,,0.10,VWS V14.01,2013-06-07 18:48:00,
2013-06-07 14:53:00,90.1,74.1,29.89,West,259,0.0,4.9,59,0.00,,,0.10,VWS V14.01,2013-06-07 18:53:00,
2013-06-07 14:58:00,90.3,73.8,29.89,North,359,0.0,3.4,58,0.00,,,0.10,VWS V14.01,2013-06-07 18:58:00,
2013-06-07 15:04:00,90.8,74.3,29.89,North,359,0.0,0.0,59,0.00,,,0.10,VWS V14.01,2013-06-07 19:04:00,
2013-06-07 15:09:00,90.9,74.0,29.89,West,270,0.0,0.0,58,0.00,,,0.10,VWS V14.01,2013-06-07 19:09:00,
2013-06-07 15:14:00,91.0,74.2,29.89,West,270,0.0,0.0,58,0.00,,,0.10,VWS V14.01,2013-06-07 19:14:00,
2013-06-07 15:20:00,90.7,73.4,29.89,North,10,0.0,1.6,57,0.00,,,0.10,VWS V14.01,2013-06-07 19:20:00,
2013-06-07 15:25:00,90.5,73.8,29.89,North,10,0.0,0.0,58,0.00,,,0.10,VWS V14.01,2013-06-07 19:25:00,
2013-06-07 15:31:00,90.4,73.3,29.88,SSE,163,2.9,4.3,57,0.01,,,0.11,VWS V14.01,2013-06-07 19:31:00,
2013-06-07 15:36:00,90.8,73.9,29.89,SSE,163,0.0,0.0,58,0.01,,,0.11,VWS V14.01,2013-06-07 19:36:00,
2013-06-07 15:41:00,90.8,73.7,29.89,SSE,163,0.0,3.2,57,0.01,,,0.11,VWS V14.01,2013-06-07 19:41:00,
2013-06-07 15:46:00,90.8,73.4,29.89,SSE,163,0.0,0.0,57,0.01,,,0.11,VWS V14.01,2013-06-07 19:46:00,
2013-06-07 15:52:00,90.8,74.2,29.88,SSE,163,0.0,0.0,58,0.01,,,0.11,VWS V14.01,2013-06-07 19:52:00,
2013-06-07 15:57:00,90.7,73.4,29.89,SSE,163,0.0,0.0,57,0.01,,,0.11,VWS V14.01,2013-06-07 19:57:00,
2013-06-07 16:03:00,90.7,73.8,29.89,WNW,300,0.0,0.0,58,0.01,,,0.11,VWS V14.01,2013-06-07 20:03:00,
2013-06-07 16:08:00,90.6,73.7,29.89,SSE,148,0.0,0.0,58,0.01,,,0.11,VWS V14.01,2013-06-07 20:08:00,
2013-06-07 16:13:00,90.3,73.8,29.89,SSE,148,0.0,0.0,58,0.01,,,0.11,VWS V14.01,2013-06-07 20:13:00,
2013-06-07 16:19:00,90.3,72.8,29.89,SE,131,0.0,0.0,57,0.01,,,0.11,VWS V14.01,2013-06-07 20:19:00,
2013-06-07 16:25:00,90.3,73.5,29.89,SSW,208,0.0,0.0,58,0.01,,,0.11,VWS V14.01,2013-06-07 20:25:00,
2013-06-07 16:30:00,90.4,73.4,29.89,West,269,0.0,6.0,58,0.00,,,0.11,VWS V14.01,2013-06-07 20:30:00,
2013-06-07 16:35:00,90.5,73.7,29.89,North,359,0.0,4.8,58,0.00,,,0.11,VWS V14.01,2013-06-07 20:35:00,
2013-06-07 16:40:00,90.3,73.7,29.89,West,270,0.0,5.0,58,0.00,,,0.11,VWS V14.01,2013-06-07 20:40:00,
2013-06-07 16:46:00,90.3,73.8,29.89,West,270,0.0,0.0,58,0.00,,,0.11,VWS V14.01,2013-06-07 20:46:00,
2013-06-07 16:51:00,90.2,73.6,29.89,West,270,0.0,0.0,58,0.00,,,0.11,VWS V14.01,2013-06-07 20:51:00,
2013-06-07 16:56:00,90.3,73.7,29.89,West,270,0.0,0.0,58,0.00,,,0.11,VWS V14.01,2013-06-07 20:56:00,
2013-06-07 17:01:00,90.1,73.7,29.89,West,270,0.0,0.0,59,0.01,,,0.12,VWS V14.01,2013-06-07 21:01:00,
2013-06-07 17:06:00,89.9,73.5,29.89,West,270,0.0,0.0,59,0.01,,,0.12,VWS V14.01,2013-06-07 21:06:00,
2013-06-07 17:12:00,89.7,73.4,29.89,West,270,0.0,0.0,59,0.01,,,0.12,VWS V14.01,2013-06-07 21:12:00,
2013-06-07 17:17:00,89.5,73.4,29.89,SSW,205,0.0,3.4,59,0.01,,,0.12,VWS V14.01,2013-06-07 21:17:00,
2013-06-07 17:22:00,89.4,73.6,29.89,SSW,205,0.0,0.0,60,0.01,,,0.12,VWS V14.01,2013-06-07 21:22:00,
2013-06-07 17:27:00,89.2,73.8,29.89,SSW,205,0.0,0.0,61,0.01,,,0.12,VWS V14.01,2013-06-07 21:27:00,
2013-06-07 17:33:00,88.9,73.3,29.89,SSW,205,0.0,2.8,60,0.01,,,0.12,VWS V14.01,2013-06-07 21:33:00,
2013-06-07 17:38:00,88.7,73.5,29.89,SSW,205,0.0,0.0,61,0.01,,,0.12,VWS V14.01,2013-06-07 21:38:00,
2013-06-07 17:43:00,88.7,74.0,29.89,SSW,205,0.0,0.0,62,0.01,,,0.12,VWS V14.01,2013-06-07 21:43:00,
2013-06-07 17:48:00,89.0,74.3,29.89,SSW,205,0.0,0.0,62,0.01,,,0.12,VWS V14.01,2013-06-07 21:48:00,
2013-06-07 17:53:00,89.1,74.1,29.89,SSW,205,0.0,0.0,61,0.01,,,0.12,VWS V14.01,2013-06-07 21:53:00,
2013-06-07 17:58:00,89.0,74.3,29.89,SSW,205,0.0,0.0,62,0.00,,,0.12,VWS V14.01,2013-06-07 21:58:00,
2013-06-07 18:04:00,88.6,73.8,29.89,SSW,205,0.0,0.0,62,0.00,,,0.12,VWS V14.01,2013-06-07 22:04:00,
2013-06-07 18:09:00,88.4,74.0,29.89,SSW,205,0.0,0.0,63,0.00,,,0.12,VWS V14.01,2013-06-07 22:09:00,
2013-06-07 18:14:00,88.1,73.9,29.89,SSW,205,0.0,0.0,63,0.00,,,0.12,VWS V14.01,2013-06-07 22:14:00,
2013-06-07 18:19:00,88.0,74.3,29.89,SSW,205,3.3,3.3,64,0.00,,,0.12,VWS V14.01,2013-06-07 22:19:00,
2013-06-07 18:24:00,87.7,73.7,29.89,SE,127,0.0,2.4,63,0.00,,,0.12,VWS V14.01,2013-06-07 22:24:00,
2013-06-07 18:30:00,87.4,73.6,29.89,SE,146,0.0,0.0,64,0.00,,,0.12,VWS V14.01,2013-06-07 22:30:00,
2013-06-07 18:35:00,87.2,73.6,29.89,SE,146,0.0,0.0,64,0.00,,,0.12,VWS V14.01,2013-06-07 22:35:00,
2013-06-07 18:40:00,87.1,73.6,29.89,SE,146,0.0,0.0,64,0.00,,,0.12,VWS V14.01,2013-06-07 22:40:00,
2013-06-07 18:45:00,87.1,73.9,29.89,SE,146,0.0,0.0,65,0.00,,,0.12,VWS V14.01,2013-06-07 22:45:00,
2013-06-07 18:50:00,87.0,73.7,29.89,SE,146,0.0,0.0,65,0.00,,,0.12,VWS V14.01,2013-06-07 22:50:00,
2013-06-07 18:55:00,87.0,73.8,29.89,SE,146,0.0,0.0,65,0.00,,,0.12,VWS V14.01,2013-06-07 22:55:00,
2013-06-07 19:00:00,86.9,73.9,29.89,SE,146,0.0,0.0,65,0.00,,,0.12,VWS V14.01,2013-06-07 23:00:00,
2013-06-07 19:05:00,86.8,74.1,29.89,SE,146,0.0,0.0,66,0.00,,,0.12,VWS V14.01,2013-06-07 23:05:00,
2013-06-07 19:11:00,86.5,73.6,29.90,SE,146,0.0,0.0,66,0.00,,,0.12,VWS V14.01,2013-06-07 23:11:00,
2013-06-07 19:16:00,86.4,73.5,29.90,SE,146,0.0,0.0,66,0.00,,,0.12,VWS V14.01,2013-06-07 23:16:00,
2013-06-07 19:21:00,86.2,73.2,29.90,SE,146,0.0,0.0,65,0.00,,,0.12,VWS V14.01,2013-06-07 23:21:00,
2013-06-07 19:26:00,86.0,73.1,29.90,SE,146,0.0,0.0,66,0.00,,,0.12,VWS V14.01,2013-06-07 23:26:00,
2013-06-07 19:31:00,85.8,72.9,29.90,SE,146,0.0,0.0,65,0.00,,,0.12,VWS V14.01,2013-06-07 23:31:00,
2013-06-07 19:36:00,85.7,72.7,29.90,SE,146,0.0,0.0,65,0.00,,,0.12,VWS V14.01,2013-06-07 23:36:00,
2013-06-07 19:41:00,85.5,72.7,29.91,SE,146,0.0,0.0,66,0.00,,,0.12,VWS V14.01,2013-06-07 23:41:00,
2013-06-07 19:47:00,85.3,72.7,29.91,SE,146,0.0,0.0,66,0.00,,,0.12,VWS V14.01,2013-06-07 23:47:00,
2013-06-07 19:52:00,85.0,72.6,29.91,SE,146,0.0,0.0,66,0.00,,,0.12,VWS V14.01,2013-06-07 23:52:00,
2013-06-07 19:58:00,84.9,72.6,29.91,SE,146,0.0,0.0,67,0.00,,,0.12,VWS V14.01,2013-06-07 23:58:00,
2013-06-07 20:03:00,84.7,72.7,29.91,SE,146,0.0,0.0,67,0.00,,,0.12,VWS V14.01,2013-06-08 00:03:00,
2013-06-07 20:08:00,84.5,72.6,29.91,SE,146,0.0,0.0,68,0.00,,,0.12,VWS V14.01,2013-06-08 00:08:00,
2013-06-07 20:14:00,84.4,72.5,29.92,SE,146,0.0,0.0,68,0.00,,,0.12,VWS V14.01,2013-06-08 00:14:00,
2013-06-07 20:19:00,84.4,72.6,29.92,SE,146,0.0,0.0,68,0.00,,,0.12,VWS V14.01,2013-06-08 00:19:00,
2013-06-07 20:25:00,84.2,72.5,29.92,SE,146,0.0,0.0,68,0.01,,,0.13,VWS V14.01,2013-06-08 00:25:00,
2013-06-07 20:30:00,83.9,72.2,29.92,SE,146,0.0,0.0,68,0.01,,,0.13,VWS V14.01,2013-06-08 00:30:00,
2013-06-07 20:36:00,83.8,72.4,29.92,SE,146,0.0,0.0,69,0.01,,,0.13,VWS V14.01,2013-06-08 00:36:00,
2013-06-07 20:41:00,83.7,72.4,29.92,SE,146,0.0,0.0,69,0.01,,,0.13,VWS V14.01,2013-06-08 00:41:00,
2013-06-07 20:46:00,83.5,72.4,29.92,SE,146,0.0,0.0,69,0.01,,,0.13,VWS V14.01,2013-06-08 00:46:00,
2013-06-07 20:51:00,83.4,72.5,29.92,SE,146,0.0,0.0,70,0.01,,,0.13,VWS V14.01,2013-06-08 00:51:00,
2013-06-07 20:56:00,83.3,72.5,29.92,SE,146,0.0,0.0,70,0.01,,,0.13,VWS V14.01,2013-06-08 00:56:00,
2013-06-07 21:01:00,83.2,72.4,29.92,SE,146,0.0,0.0,70,0.01,,,0.13,VWS V14.01,2013-06-08 01:01:00,
2013-06-07 21:07:00,83.1,72.4,29.92,SE,146,0.0,0.0,70,0.01,,,0.13,VWS V14.01,2013-06-08 01:07:00,
2013-06-07 21:12:00,82.8,72.2,29.92,SE,146,0.0,0.0,70,0.01,,,0.13,VWS V14.01,2013-06-08 01:12:00,
2013-06-07 21:17:00,82.6,71.9,29.92,SE,146,0.0,0.0,70,0.01,,,0.13,VWS V14.01,2013-06-08 01:17:00,
2013-06-07 21:22:00,82.6,71.9,29.92,SE,146,0.0,0.0,70,0.01,,,0.13,VWS V14.01,2013-06-08 01:22:00,
2013-06-07 21:27:00,82.4,71.7,29.92,SE,146,0.0,0.0,70,0.01,,,0.13,VWS V14.01,2013-06-08 01:27:00,
2013-06-07 21:33:00,82.4,71.8,29.93,SE,146,0.0,0.0,70,0.00,,,0.13,VWS V14.01,2013-06-08 01:33:00,
2013-06-07 21:38:00,82.1,71.8,29.93,SE,146,0.0,0.0,71,0.00,,,0.13,VWS V14.01,2013-06-08 01:38:00,
2013-06-07 21:43:00,82.0,71.9,29.93,SE,146,0.0,0.0,72,0.00,,,0.13,VWS V14.01,2013-06-08 01:43:00,
2013-06-07 21:48:00,81.8,71.8,29.94,SE,146,0.0,0.0,72,0.00,,,0.13,VWS V14.01,2013-06-08 01:48:00,
2013-06-07 21:53:00,81.7,71.8,29.94,SE,146,0.0,0.0,72,0.00,,,0.13,VWS V14.01,2013-06-08 01:53:00,
2013-06-07 21:58:00,81.5,71.7,29.94,SE,146,0.0,0.0,72,0.00,,,0.13,VWS V14.01,2013-06-08 01:58:00,
2013-06-07 22:04:00,81.4,71.7,29.95,SE,146,0.0,0.0,72,0.00,,,0.13,VWS V14.01,2013-06-08 02:04:00,
2013-06-07 22:09:00,81.4,71.8,29.95,SE,146,0.0,0.0,73,0.00,,,0.13,VWS V14.01,2013-06-08 02:09:00,
2013-06-07 22:14:00,81.4,71.9,29.95,SE,146,0.0,0.0,73,0.00,,,0.13,VWS V14.01,2013-06-08 02:14:00,
2013-06-07 22:19:00,81.1,71.7,29.95,SE,146,0.0,0.0,73,0.00,,,0.13,VWS V14.01,2013-06-08 02:19:00,
2013-06-07 22:25:00,81.0,71.6,29.95,SE,146,0.0,0.0,73,0.00,,,0.13,VWS V14.01,2013-06-08 02:25:00,
2013-06-07 22:30:00,81.0,71.6,29.95,SE,146,0.0,0.0,73,0.00,,,0.13,VWS V14.01,2013-06-08 02:30:00,
2013-06-07 22:35:00,80.9,71.7,29.95,SE,146,0.0,0.0,74,0.00,,,0.13,VWS V14.01,2013-06-08 02:35:00,
2013-06-07 22:41:00,80.8,71.7,29.96,SE,146,0.0,0.0,74,0.00,,,0.13,VWS V14.01,2013-06-08 02:41:00,
2013-06-07 22:46:00,80.5,71.5,29.96,SE,146,0.0,0.0,74,0.00,,,0.13,VWS V14.01,2013-06-08 02:46:00,
2013-06-07 22:51:00,80.3,71.4,29.96,SE,146,0.0,0.0,74,0.00,,,0.13,VWS V14.01,2013-06-08 02:51:00,
2013-06-07 22:57:00,80.5,71.7,29.96,SE,146,0.0,0.0,75,0.00,,,0.13,VWS V14.01,2013-06-08 02:57:00,
2013-06-07 23:02:00,80.4,71.7,29.96,SE,146,0.0,0.0,75,0.00,,,0.13,VWS V14.01,2013-06-08 03:02:00,
2013-06-07 23:07:00,80.5,71.8,29.96,SE,146,0.0,0.0,75,0.00,,,0.13,VWS V14.01,2013-06-08 03:07:00,
2013-06-07 23:12:00,80.5,71.9,29.96,SE,146,0.0,0.0,75,0.00,,,0.13,VWS V14.01,2013-06-08 03:12:00,
2013-06-07 23:17:00,80.4,71.9,29.96,SE,146,0.0,0.0,75,0.01,,,0.14,VWS V14.01,2013-06-08 03:17:00,
2013-06-07 23:23:00,80.2,71.9,29.96,SE,146,0.0,0.0,76,0.01,,,0.14,VWS V14.01,2013-06-08 03:23:00,
2013-06-07 23:28:00,80.1,72.1,29.96,SE,146,0.0,0.0,76,0.01,,,0.14,VWS V14.01,2013-06-08 03:28:00,
2013-06-07 23:33:00,79.9,71.9,29.96,SE,146,0.0,0.0,77,0.01,,,0.14,VWS V14.01,2013-06-08 03:33:00,
2013-06-07 23:39:00,80.0,72.2,29.96,SE,146,0.0,0.0,77,0.01,,,0.14,VWS V14.01,2013-06-08 03:39:00,
2013-06-07 23:44:00,79.8,72.1,29.97,SE,146,0.0,0.0,77,0.01,,,0.14,VWS V14.01,2013-06-08 03:44:00,
2013-06-07 23:49:00,79.7,72.1,29.96,SE,146,0.0,0.0,78,0.01,,,0.14,VWS V14.01,2013-06-08 03:49:00,
2013-06-07 23:54:00,79.7,72.2,29.96,SE,146,0.0,0.0,78,0.01,,,0.14,VWS V14.01,2013-06-08 03:54:00,